Grove, OK

9:55 AM CST on November 12, 2019 (GMT -0600)
Grove Municipal

Weather History for KGMJ - October, 2019

Change the Weather History Date:

Sunday, October 20, 2019

  Actual Average (KSLG) Record (KSLG)
Temperature  
Mean Temperature 60 °F -  
Max Temperature 77 °F 66 °F 82 °F (2003)
Min Temperature 44 °F 46 °F 28 °F (2011)
Degree Days  
Heating Degree Days 4    
Growing Degree Days 10 (Base 50)    
Moisture  
Dew Point 51 °F    
Average Humidity 78    
Maximum Humidity 100    
Minimum Humidity 39    
Precipitation  
Precipitation 0.00 in - - ()
Sea Level Pressure  
Sea Level Pressure 29.75 in    
Wind  
Wind Speed 3 mph ()    
Max Wind Speed 29 mph    
Max Gust Speed 43 mph    
Visibility 6.0 miles    
Events Fog , Rain , Thunderstorm    
Averages and records for this station are not official NWS values.
T = Trace of Precipitation, MM = Missing Value Source: Averaged Metar Reports

Daily Weather History Graph

Daily Weather History Graph

Search for Another Location

Airport or City:

Astronomy

Oct. 20, 2019 Rise Set
Actual Time 7:30 AM CDT 6:36 PM CDT
Civil Twilight 7:04 AM CDT 7:02 PM CDT
Nautical Twilight 6:34 AM CDT 7:32 PM CDT
Astronomical Twilight 6:04 AM CDT 8:02 PM CDT
Moon 11:52 PM CDT (10/20) 1:52 PM CDT (10/20)
Length of Visible Light 11h 57m
Length of Day
11h 05m
Waning Gibbous, 59% of the Moon is Illuminated
Oct 20
Waning Gibbous
Oct 21
Last Quarter
Oct 27
New
Nov 4
First Quarter
Nov 12
Full

Hourly Weather History & Observations

Time (CDT) Temp. Dew Point Humidity Pressure Visibility Wind Dir Wind Speed Gust Speed Precip Events Conditions
12:15 AM 51.8 °F 51.8 °F 100% 29.85 in 4.0 mi Calm Calm - N/A   Clear
12:35 AM 50.0 °F 50.0 °F 100% 29.85 in 1.2 mi Calm Calm - N/A   Mist
12:55 AM 50.0 °F 50.0 °F 100% 29.84 in 2.5 mi Calm Calm - N/A   Clear
1:15 AM 50.0 °F 50.0 °F 100% 29.85 in 2.0 mi Calm Calm - N/A   Clear
1:35 AM 50.0 °F 50.0 °F 100% 29.85 in 0.5 mi Calm Calm - N/A Fog Fog
1:50 AM 50.0 °F 48.2 °F 94% 29.85 in 1.5 mi Calm Calm - N/A   Mist
2:15 AM 48.2 °F 48.2 °F 100% 29.85 in 1.8 mi Calm Calm - N/A   Mist
2:40 AM 48.2 °F 48.2 °F 100% 29.85 in 0.5 mi Calm Calm - N/A Fog Fog
2:55 AM 46.4 °F 46.4 °F 100% 29.84 in 1.0 mi Calm Calm - N/A   Mist
3:15 AM 46.4 °F 46.4 °F 100% 29.84 in 0.5 mi Calm Calm - N/A Fog Fog
3:35 AM 46.4 °F 46.4 °F 100% 29.84 in 0.5 mi Calm Calm - N/A Fog Fog
3:55 AM 46.4 °F 46.4 °F 100% 29.84 in 0.5 mi Calm Calm - N/A Fog Fog
4:15 AM 46.4 °F 46.4 °F 100% 29.85 in 0.5 mi Calm Calm - N/A Fog Fog
4:55 AM 44.6 °F 44.6 °F 100% 29.85 in 1.2 mi Calm Calm - N/A   Mist
5:15 AM 44.6 °F 44.6 °F 100% 29.85 in 0.5 mi Calm Calm - N/A Fog Fog
5:35 AM 44.6 °F 44.6 °F 100% 29.85 in 0.8 mi Calm Calm - N/A   Mist
6:00 AM 44.6 °F 44.6 °F 100% 29.85 in 0.5 mi Calm Calm - N/A Fog Fog
6:15 AM 44.6 °F 44.6 °F 100% 29.85 in 0.5 mi Calm Calm - N/A Fog Fog
6:35 AM 44.6 °F 44.6 °F 100% 29.86 in 1.2 mi Calm Calm - N/A   Mist
6:55 AM 44.6 °F 44.6 °F 100% 29.84 in 0.8 mi Calm Calm - N/A   Mist
7:15 AM 44.6 °F 44.6 °F 100% 29.85 in 2.5 mi Calm Calm - N/A   Clear
7:35 AM 44.6 °F 44.6 °F 100% 29.85 in 2.5 mi Calm Calm - N/A   Clear
7:55 AM 44.6 °F 44.6 °F 100% 29.85 in 1.8 mi Calm Calm - N/A   Mist
8:15 AM 46.4 °F 46.4 °F 100% 29.85 in 4.0 mi Calm Calm - N/A   Clear
8:35 AM 46.4 °F 46.4 °F 100% 29.85 in 7.0 mi Calm Calm - N/A   Clear
8:55 AM 50.0 °F 50.0 °F 100% 29.85 in 10.0 mi Calm Calm - N/A   Clear
9:20 AM 51.8 °F 51.8 °F 100% 29.86 in 10.0 mi Calm Calm - N/A   Clear
9:35 AM 53.6 °F 53.6 °F 100% 29.86 in 10.0 mi East 4.6 mph - N/A   Clear
9:55 AM 55.4 °F 55.4 °F 100% 29.85 in 10.0 mi East 6.9 mph - N/A   Clear
10:20 AM 59.0 °F 55.4 °F 88% 29.85 in 10.0 mi East 5.8 mph - N/A   Clear
10:55 AM 62.6 °F 55.4 °F 77% 29.83 in 10.0 mi ESE 6.9 mph - N/A   Clear
11:35 AM 68.0 °F 57.2 °F 68% 29.83 in 10.0 mi SE 4.6 mph - N/A   Clear
11:55 AM 69.8 °F 55.4 °F 60% 29.82 in 10.0 mi ESE 8.1 mph - N/A   Clear
12:15 PM 71.6 °F 55.4 °F 57% 29.81 in 10.0 mi SSE 8.1 mph - N/A   Clear
12:35 PM 71.6 °F 55.4 °F 57% 29.80 in 10.0 mi SSE 8.1 mph - N/A   Clear
12:55 PM 71.6 °F 55.4 °F 57% 29.79 in 10.0 mi SE 8.1 mph - N/A   Clear
1:15 PM 73.4 °F 53.6 °F 50% 29.78 in 10.0 mi SSE 8.1 mph - N/A   Clear
1:35 PM 73.4 °F 55.4 °F 53% 29.76 in - SSE 6.9 mph - N/A   Clear
1:55 PM 73.4 °F 53.6 °F 50% 29.75 in - South 10.4 mph - N/A   Clear
2:15 PM 75.2 °F 53.6 °F 47% 29.74 in - South 9.2 mph - N/A   Clear
2:35 PM 77.0 °F 53.6 °F 44% 29.72 in - SSE 12.7 mph 18.4 mph N/A   Clear
2:55 PM 77.0 °F 51.8 °F 41% 29.71 in - SSE 10.4 mph 17.3 mph N/A   Clear
3:15 PM 77.0 °F 51.8 °F 41% 29.70 in - SSE 11.5 mph 17.3 mph N/A   Clear
3:35 PM 77.0 °F 50.0 °F 39% 29.69 in - SSE 11.5 mph 16.1 mph N/A   Clear
3:55 PM 77.0 °F 50.0 °F 39% 29.68 in - SSE 8.1 mph 18.4 mph N/A   Clear
4:35 PM 77.0 °F 50.0 °F 39% 29.67 in - SE 10.4 mph 16.1 mph N/A   Clear
4:55 PM 77.0 °F 50.0 °F 39% 29.67 in - SE 9.2 mph - N/A   Clear
5:15 PM 77.0 °F 50.0 °F 39% 29.66 in - SE 10.4 mph - N/A   Clear
5:35 PM 75.2 °F 50.0 °F 41% 29.66 in 10.0 mi SSE 10.4 mph - N/A   Clear
5:55 PM 73.4 °F 50.0 °F 44% 29.66 in 10.0 mi SE 4.6 mph - N/A   Clear
6:15 PM 71.6 °F 51.8 °F 50% 29.65 in 10.0 mi SE 5.8 mph - N/A   Clear
6:35 PM 69.8 °F 51.8 °F 53% 29.65 in 10.0 mi SE 5.8 mph - N/A   Clear
6:55 PM 68.0 °F 51.8 °F 56% 29.65 in 10.0 mi SE 3.5 mph - N/A   Clear
7:15 PM 66.2 °F 51.8 °F 60% 29.65 in 10.0 mi ESE 3.5 mph - N/A   Clear
7:35 PM 64.4 °F 53.6 °F 68% 29.66 in 10.0 mi Calm Calm - N/A   Scattered Clouds
7:55 PM 64.4 °F 53.6 °F 68% 29.66 in 10.0 mi ESE 3.5 mph - N/A   Mostly Cloudy
8:10 PM 64.4 °F 55.4 °F 73% 29.66 in 10.0 mi SE 3.5 mph - N/A   Mostly Cloudy
8:35 PM 64.4 °F 55.4 °F 73% 29.66 in 10.0 mi ESE 3.5 mph - N/A   Clear
8:55 PM 62.6 °F 55.4 °F 77% 29.63 in 10.0 mi East 3.5 mph - N/A   Clear
9:15 PM 62.6 °F 55.4 °F 77% 29.61 in 10.0 mi East 3.5 mph - N/A   Clear
9:35 PM 64.4 °F 57.2 °F 77% 29.58 in 10.0 mi East 5.8 mph - N/A   Clear
9:55 PM 64.4 °F 59.0 °F 83% 29.55 in 10.0 mi East 5.8 mph - N/A   Clear
10:15 PM 68.0 °F 59.0 °F 73% 29.54 in 10.0 mi ESE 5.8 mph - N/A Thunderstorm Mostly Cloudy
10:35 PM 68.0 °F 60.8 °F 78% 29.55 in 10.0 mi SSE 8.1 mph - N/A Rain Light Rain
10:55 PM 64.4 °F 60.8 °F 88% 29.50 in 4.0 mi East 11.5 mph - N/A Rain , Thunderstorm Light Thunderstorms and Rain
11:15 PM 64.4 °F 62.6 °F 94% 29.49 in 10.0 mi Calm Calm - N/A Rain , Thunderstorm Light Thunderstorms and Rain
11:35 PM 60.8 °F 57.2 °F 88% 29.55 in 1.2 mi NW 28.8 mph 42.6 mph N/A Rain , Thunderstorm Heavy Thunderstorms and Rain
11:55 PM 59.0 °F 55.4 °F 88% 29.59 in 4.0 mi WNW 12.7 mph 21.9 mph N/A Rain , Thunderstorm Heavy Thunderstorms and Rain